CheckWX is a tool to help pilots better visualize weather data.  It is not intended as a substitute for an official pre-flight weather briefing.

01:53:23 UTC

DNPO TAF
Port Harcourt International Airport
Port Harcourt, Nigeria
TAF DNPO 182130Z 1900/2006 VRB02KT 8000 SCT009 TEMPO 1903/1907 3000 BR PROB30 1905/1907 1500 BECMG 1907/1909 22008KT BKN010 FEW020CB

Mar-19@
00:00 UTC

Mar-19 @ 00:00 UTC

Mar-19@
07:00 UTC

Mar-19 @ 07:00 UTC

TAF DNPO 182130Z 1900/2006 VRB02KT 8000 SCT009
Wind
  • Variable at 2 KTS
Cloud Levels
  • Scattered at 900' AGL

Mar-19@
03:00 UTC

Mar-19 @ 03:00 UTC

Mar-19@
07:00 UTC

Mar-19 @ 07:00 UTC

TEMPO 1903/1907 3000 BR

Temporary

Temporary Changes expected for less than half the time period

Conditions
Mist

Mar-19@
05:00 UTC

Mar-19 @ 05:00 UTC

Mar-19@
07:00 UTC

Mar-19 @ 07:00 UTC

PROB30 1905/1907 1500

Probable - 30% Likelihood

Probable - 30% Likelihood during this time.

Mar-19@
07:00 UTC

Mar-19 @ 07:00 UTC

Mar-20@
06:00 UTC

Mar-20 @ 06:00 UTC

BECMG 1907/1909 22008KT BKN010 FEW020CB

Becoming

Becoming Conditions expected by Tue, Mar 19, 2019 @ 09:00 UTC

Wind
  • 220° at 8 KTS
Cloud Levels
  • Broken at 1,000' AGL
  • Few at 2,000' AGL